»·PEaware :: N3021C KCMA-KVNY

N3021C :: KCMA-KVNY

FLIGHT INFORMATION

Flight Status: Arrived
Operator: Privately registered:
United States
More flights under this callsign
Pilot: Mark B. (9455)
Aircraft: CESSNA 172 SKYHAWK
(C172)
More flights by this aircraft type
Origin: KCMA Camarillo
United States
Destination: KVNY Van Nuys
United States
More flights between these airports :: More routes between these airports
Route: +VTU255R GINNA
File this flight plan on PilotEdge
Remarks:
Altitude:
(Current/Filed)
5,000ft
Speed:
(Current/Filed)
115kts
Departed: 07-Sep-16 04:30 PM
Arrived: 07-Sep-16 05:14 PM
Distance/Time
Traveled:
30nm/0:44
Distance/Time
To Go:
Arrived

Flight Plot

Page will automatically refresh every two minutes.


Map Options




Map Legend


Flown Route
Filed Route
Departure Airport
Arrival Airport
Navaid (VOR, NDB)
Fix

Horizontal Profiles

Position Reports

Time Latitude Longitude Heading Altitude Ground
Speed
07-Sep-16 15:42 34.210017 -119.095168 359 64ft 0kts
07-Sep-16 15:43 34.210017 -119.095168 359 64ft 0kts
07-Sep-16 15:44 34.210017 -119.095168 359 64ft 0kts
07-Sep-16 15:45 34.210017 -119.095168 359 64ft 0kts
07-Sep-16 15:46 34.210017 -119.095168 359 64ft 0kts
07-Sep-16 15:47 34.210017 -119.095168 359 64ft 0kts
07-Sep-16 15:48 34.210017 -119.095168 359 64ft 0kts
07-Sep-16 15:49 34.210017 -119.095168 359 64ft 0kts
07-Sep-16 15:50 34.210017 -119.095168 359 64ft 0kts
07-Sep-16 15:52 34.210017 -119.095168 359 64ft 0kts
07-Sep-16 15:53 34.210017 -119.095168 359 64ft 0kts
07-Sep-16 15:54 34.210017 -119.095168 359 64ft 0kts
07-Sep-16 15:55 34.210017 -119.095168 359 64ft 0kts
07-Sep-16 15:56 34.210017 -119.095168 359 64ft 0kts
07-Sep-16 15:57 34.210017 -119.095168 359 64ft 0kts
07-Sep-16 15:58 34.210017 -119.095168 359 64ft 0kts
07-Sep-16 15:59 34.210017 -119.095168 359 64ft 0kts
07-Sep-16 16:00 34.210017 -119.095168 359 64ft 0kts
07-Sep-16 16:01 34.210017 -119.095168 359 64ft 0kts
07-Sep-16 16:02 34.210017 -119.095168 359 64ft 0kts
07-Sep-16 16:03 34.210017 -119.095168 359 64ft 0kts
07-Sep-16 16:04 34.210017 -119.095168 359 64ft 0kts
07-Sep-16 16:05 34.210017 -119.095168 359 64ft 0kts
07-Sep-16 16:06 34.210017 -119.095168 359 64ft 0kts
07-Sep-16 16:07 34.210017 -119.095168 359 64ft 0kts
07-Sep-16 16:08 34.210017 -119.095168 359 64ft 0kts
07-Sep-16 16:09 34.210017 -119.095168 359 64ft 0kts
07-Sep-16 16:10 34.210017 -119.095168 359 64ft 0kts
07-Sep-16 16:11 34.210017 -119.095168 359 64ft 0kts
07-Sep-16 16:12 34.210017 -119.095168 359 64ft 0kts
07-Sep-16 16:13 34.210017 -119.095168 359 64ft 0kts
07-Sep-16 16:14 34.210017 -119.095168 359 64ft 0kts
07-Sep-16 16:15 34.210017 -119.095168 359 64ft 0kts
07-Sep-16 16:16 34.210017 -119.095168 359 64ft 0kts
07-Sep-16 16:17 34.210017 -119.095168 359 64ft 0kts
07-Sep-16 16:18 34.210017 -119.095168 359 64ft 0kts
07-Sep-16 16:19 34.210017 -119.095168 359 64ft 0kts
07-Sep-16 16:20 34.210017 -119.095168 359 64ft 0kts
07-Sep-16 16:21 34.210017 -119.095168 359 64ft 0kts
07-Sep-16 16:22 34.210017 -119.095168 359 64ft 0kts
07-Sep-16 16:23 34.210552 -119.094956 32 64ft 13kts
07-Sep-16 16:24 34.210796 -119.086412 87 73ft 29kts
07-Sep-16 16:25 34.212613 -119.083706 4 76ft 0kts
07-Sep-16 16:26 34.212613 -119.083706 4 76ft 0kts
07-Sep-16 16:27 34.213591 -119.083870 305 76ft 13kts
07-Sep-16 16:28 34.212618 -119.109715 268 921ft 80kts
07-Sep-16 16:29 34.213609 -119.140462 285 2035ft 88kts
07-Sep-16 16:30 34.217804 -119.169928 290 3079ft 88kts
07-Sep-16 16:31 34.225457 -119.198536 292 4049ft 90kts
07-Sep-16 16:31 34.215218 -119.210853 133 4734ft 96kts
07-Sep-16 16:33 34.202946 -119.175148 108 5062ft 110kts
07-Sep-16 16:33 34.198094 -119.143875 92 4922ft 116kts
07-Sep-16 16:35 34.191301 -119.103184 124 4999ft 103kts
07-Sep-16 16:36 34.174056 -119.074606 104 5002ft 103kts
07-Sep-16 16:36 34.162972 -119.048402 109 4959ft 107kts
07-Sep-16 16:37 34.158549 -119.014071 75 4984ft 103kts
07-Sep-16 16:38 34.170276 -118.982461 67 4994ft 103kts
07-Sep-16 16:39 34.181646 -118.951429 54 4993ft 104kts
07-Sep-16 16:40 34.193537 -118.922436 81 4955ft 107kts
07-Sep-16 16:41 34.204127 -118.892531 68 4953ft 106kts
07-Sep-16 16:42 34.213418 -118.860516 81 4974ft 104kts
07-Sep-16 16:43 34.225612 -118.829564 79 4976ft 103kts
07-Sep-16 16:44 34.219252 -118.795811 105 4979ft 105kts
07-Sep-16 16:45 34.231271 -118.767862 47 4998ft 101kts
07-Sep-16 16:46 34.251363 -118.743713 35 4992ft 102kts
07-Sep-16 16:47 34.269422 -118.716774 37 4983ft 105kts
07-Sep-16 16:48 34.292966 -118.695505 60 5006ft 104kts
07-Sep-16 16:49 34.312344 -118.666684 41 5007ft 104kts
07-Sep-16 16:50 34.334083 -118.640590 46 5009ft 105kts
07-Sep-16 16:51 34.356254 -118.615225 51 5027ft 104kts
07-Sep-16 16:52 34.383819 -118.605317 21 5002ft 105kts
07-Sep-16 16:53 34.406479 -118.583584 40 5004ft 106kts
07-Sep-16 16:55 34.427102 -118.558737 40 5018ft 103kts
07-Sep-16 16:56 34.453646 -118.550464 356 5014ft 103kts
07-Sep-16 16:57 34.482757 -118.549122 351 5008ft 104kts
07-Sep-16 16:58 34.511712 -118.552188 357 5007ft 106kts
07-Sep-16 16:59 34.527890 -118.532232 119 5026ft 104kts
07-Sep-16 17:00 34.500441 -118.524156 164 5044ft 98kts
07-Sep-16 17:01 34.475762 -118.516746 163 4999ft 89kts
07-Sep-16 17:02 34.451866 -118.515211 176 4946ft 84kts
07-Sep-16 17:03 34.428295 -118.512716 169 5067ft 91kts
07-Sep-16 17:04 34.402903 -118.510702 181 5073ft 96kts
07-Sep-16 17:05 34.377445 -118.507084 183 4986ft 99kts
07-Sep-16 17:06 34.352919 -118.506963 177 4880ft 90kts
07-Sep-16 17:07 34.326676 -118.503672 168 4216ft 92kts
07-Sep-16 17:08 34.300134 -118.498612 168 3406ft 90kts
07-Sep-16 17:09 34.273793 -118.496125 167 2601ft 89kts
07-Sep-16 17:10 34.247864 -118.493372 177 1821ft 88kts
07-Sep-16 17:11 34.224443 -118.491736 171 1090ft 83kts
07-Sep-16 17:12 34.207995 -118.490167 179 774ft 8kts

Navigation Log

Ident Type
Flight plan parsing failed, navigation log unavailable